Time;durP1;ratioP1;P1;durP2;ratioP2;P2;SDS_P1;SDS_P2;PMS_P1;PMS_P2;Temp;Humidity;BMP_temperature;BMP_pressure;BME280_temperature;BME280_humidity;BME280_pressure;Samples;Min_cycle;Max_cycle;Signal;HPM_P1;HPM_P2
2021/01/23 00:04:02;;;;;;;7.67;6.87;;;8.10;37.50;;;;;;10394478;28;20217;-73
2021/01/23 00:09:04;;;;;;;7.77;7.00;;;8.10;37.40;;;;;;10397155;28;20578;-73
2021/01/23 00:14:07;;;;;;;7.07;6.33;;;8.20;37.60;;;;;;10397335;28;20332;-73
2021/01/23 00:19:09;;;;;;;7.77;6.33;;;8.20;37.70;;;;;;10396347;28;20236;-73
2021/01/23 00:24:12;;;;;;;8.00;6.93;;;8.20;37.60;;;;;;10393050;28;20226;-73
2021/01/23 00:29:16;;;;;;;7.50;6.70;;;8.30;37.60;;;;;;10404487;28;20222;-73
2021/01/23 00:34:18;;;;;;;7.40;6.57;;;8.30;38.00;;;;;;10397908;28;20229;-73
2021/01/23 00:39:20;;;;;;;7.27;6.57;;;8.30;37.60;;;;;;10395080;28;20408;-72
2021/01/23 00:44:23;;;;;;;7.40;6.33;;;8.20;37.80;;;;;;10391932;28;20229;-73
2021/01/23 00:49:25;;;;;;;6.97;6.27;;;8.20;38.10;;;;;;10399398;28;20232;-73
2021/01/23 00:54:28;;;;;;;6.57;5.90;;;8.20;38.10;;;;;;10393199;28;20789;-73
2021/01/23 00:59:31;;;;;;;6.57;5.97;;;8.10;38.10;;;;;;10401060;28;20244;-73
2021/01/23 01:04:33;;;;;;;5.90;5.30;;;8.10;39.30;;;;;;10397353;28;20309;-73
2021/01/23 01:09:35;;;;;;;6.10;5.50;;;8.00;38.40;;;;;;10395915;28;20221;-73
2021/01/23 01:14:38;;;;;;;7.33;5.83;;;7.90;38.60;;;;;;10404672;28;20755;-72
2021/01/23 01:19:40;;;;;;;5.67;5.17;;;7.90;39.20;;;;;;10404108;28;20279;-72
2021/01/23 01:24:43;;;;;;;5.57;5.07;;;7.80;39.00;;;;;;10406833;28;20217;-73
2021/01/23 01:29:46;;;;;;;5.40;4.90;;;7.70;39.00;;;;;;10401023;28;20595;-73
2021/01/23 01:34:48;;;;;;;5.53;4.77;;;7.60;39.80;;;;;;10403237;28;20226;-73
2021/01/23 01:39:50;;;;;;;5.67;4.73;;;7.60;39.80;;;;;;10405767;28;20230;-73
2021/01/23 01:44:54;;;;;;;4.60;4.20;;;7.60;40.20;;;;;;10406337;28;20229;-72
2021/01/23 01:49:57;;;;;;;4.90;4.40;;;7.50;40.20;;;;;;10396761;28;20226;-73
2021/01/23 01:55:00;;;;;;;4.73;4.33;;;7.50;40.60;;;;;;10398954;28;20701;-71
2021/01/23 02:00:06;;;;;;;4.90;4.40;;;7.50;40.50;;;;;;10404324;28;20225;-72
2021/01/23 02:05:17;;;;;;;4.73;4.17;;;7.50;41.20;;;;;;10400058;28;20272;-73
2021/01/23 02:10:27;;;;;;;4.53;4.13;;;7.60;41.30;;;;;;10406469;28;20245;-72
2021/01/23 02:15:35;;;;;;;4.40;4.10;;;7.60;41.30;;;;;;10403884;28;20233;-72
2021/01/23 02:21:09;;;;;;;4.30;3.90;;;7.70;41.80;;;;;;10403084;28;20232;-72
2021/01/23 02:26:17;;;;;;;4.53;4.10;;;7.70;42.10;;;;;;10401673;28;20218;-72
2021/01/23 02:31:24;;;;;;;4.97;4.57;;;7.80;41.20;;;;;;10409507;28;20847;-72
2021/01/23 02:36:27;;;;;;;4.50;4.20;;;7.80;41.10;;;;;;10402764;28;20685;-72
2021/01/23 02:41:31;;;;;;;4.67;4.27;;;7.70;40.50;;;;;;10404527;28;20231;-72
2021/01/23 02:46:34;;;;;;;3.60;3.40;;;7.70;40.90;;;;;;10407109;28;20222;-73
2021/01/23 02:51:43;;;;;;;2.80;2.60;;;7.60;40.80;;;;;;10410410;28;20245;-72
2021/01/23 02:56:47;;;;;;;2.00;1.90;;;7.50;40.80;;;;;;10408488;28;20313;-72
2021/01/23 03:01:52;;;;;;;1.57;1.47;;;7.40;40.10;;;;;;10407113;28;20226;-72
2021/01/23 03:06:55;;;;;;;1.23;1.23;;;7.20;40.00;;;;;;10401583;28;20230;-72
2021/01/23 03:11:58;;;;;;;1.17;1.17;;;7.00;39.50;;;;;;10400793;28;20637;-72
2021/01/23 03:17:01;;;;;;;1.50;1.40;;;6.80;39.30;;;;;;10403500;28;20231;-72
2021/01/23 03:22:04;;;;;;;1.10;1.10;;;6.60;39.70;;;;;;10393785;28;20317;-72
2021/01/23 03:27:07;;;;;;;1.00;1.00;;;6.40;39.70;;;;;;10409302;28;20256;-73
2021/01/23 03:32:10;;;;;;;0.90;0.90;;;6.20;39.90;;;;;;10400661;28;20238;-73
2021/01/23 03:37:12;;;;;;;0.83;0.83;;;6.10;40.00;;;;;;10398387;28;20218;-72
2021/01/23 03:42:15;;;;;;;0.70;0.70;;;6.00;39.80;;;;;;10396975;28;20237;-73
2021/01/23 03:47:18;;;;;;;0.70;0.70;;;5.90;40.10;;;;;;10397948;28;20229;-72
2021/01/23 03:52:20;;;;;;;0.80;0.80;;;5.80;40.20;;;;;;10393617;28;20257;-72
2021/01/23 03:57:22;;;;;;;0.60;0.60;;;5.80;40.30;;;;;;10400837;28;20226;-73
2021/01/23 04:02:25;;;;;;;0.70;0.70;;;5.70;40.30;;;;;;10398625;28;20236;-73
2021/01/23 04:07:28;;;;;;;0.60;0.60;;;5.60;40.70;;;;;;10397365;28;20229;-73
2021/01/23 04:12:30;;;;;;;0.50;0.50;;;5.50;40.50;;;;;;10394673;28;20226;-73
2021/01/23 04:17:33;;;;;;;0.53;0.53;;;5.50;40.80;;;;;;10402329;28;20226;-73
2021/01/23 04:22:35;;;;;;;0.47;0.47;;;5.40;41.10;;;;;;10396992;28;20233;-73
2021/01/23 04:27:39;;;;;;;0.50;0.50;;;5.40;41.00;;;;;;10397280;28;20312;-73
2021/01/23 04:32:42;;;;;;;0.43;0.43;;;5.30;41.10;;;;;;10404278;28;20772;-73
2021/01/23 04:37:45;;;;;;;0.50;0.50;;;5.30;41.20;;;;;;10399817;28;20596;-73
2021/01/23 04:42:48;;;;;;;0.60;0.60;;;5.30;41.10;;;;;;10404222;28;20221;-73
2021/01/23 04:47:53;;;;;;;0.60;0.60;;;5.20;41.30;;;;;;10398856;28;20221;-73
2021/01/23 04:52:55;;;;;;;0.40;0.40;;;5.20;41.60;;;;;;10396056;28;20308;-73
2021/01/23 04:57:58;;;;;;;0.50;0.50;;;5.20;41.10;;;;;;10397254;28;20222;-73
2021/01/23 05:03:02;;;;;;;0.50;0.50;;;5.20;41.30;;;;;;10385133;28;20230;-73
2021/01/23 05:08:10;;;;;;;0.47;0.47;;;5.20;41.60;;;;;;10399928;28;20418;-73
2021/01/23 05:13:13;;;;;;;0.50;0.50;;;5.20;41.90;;;;;;10397115;28;20236;-73
2021/01/23 05:18:16;;;;;;;0.50;0.50;;;5.20;41.70;;;;;;10394841;28;20230;-73
2021/01/23 05:23:22;;;;;;;0.70;0.70;;;5.20;41.60;;;;;;10394086;28;20314;-73
2021/01/23 05:28:26;;;;;;;0.40;0.40;;;5.20;41.90;;;;;;10400601;28;20600;-73
2021/01/23 05:33:31;;;;;;;0.40;0.40;;;5.20;41.90;;;;;;10401428;28;20230;-73
2021/01/23 05:38:34;;;;;;;0.40;0.40;;;5.10;42.10;;;;;;10397558;28;20231;-73
2021/01/23 05:43:38;;;;;;;0.40;0.40;;;5.10;41.90;;;;;;10400133;28;20247;-73
2021/01/23 05:48:42;;;;;;;0.70;0.40;;;5.10;42.10;;;;;;10399176;28;20308;-73
2021/01/23 05:53:45;;;;;;;0.40;0.40;;;5.10;42.60;;;;;;10394072;28;20236;-73
2021/01/23 05:58:47;;;;;;;0.43;0.43;;;5.10;42.30;;;;;;10397863;28;20319;-73
2021/01/23 06:03:53;;;;;;;0.40;0.40;;;5.10;42.10;;;;;;10405749;28;20233;-73
2021/01/23 06:08:55;;;;;;;0.60;0.60;;;5.10;42.40;;;;;;10410682;28;20336;-73
2021/01/23 06:13:58;;;;;;;0.43;0.43;;;5.10;41.90;;;;;;10405087;28;20231;-73
2021/01/23 06:19:21;;;;;;;0.50;0.50;;;5.10;42.20;;;;;;10402703;28;20236;-73
2021/01/23 06:24:51;;;;;;;0.60;0.60;;;5.10;42.40;;;;;;10405958;28;20595;-73
2021/01/23 06:29:53;;;;;;;0.53;0.53;;;5.10;42.50;;;;;;10400526;28;20241;-73
2021/01/23 06:34:58;;;;;;;0.67;0.67;;;5.10;42.20;;;;;;10407449;28;20238;-73
2021/01/23 06:40:10;;;;;;;1.00;1.00;;;5.10;42.40;;;;;;10404741;28;20703;-73
2021/01/23 06:45:24;;;;;;;1.10;1.10;;;5.10;43.10;;;;;;10401056;28;20222;-73
2021/01/23 06:50:36;;;;;;;1.60;1.50;;;5.10;42.80;;;;;;10400065;28;20253;-72
2021/01/23 06:55:47;;;;;;;1.13;1.13;;;5.10;42.90;;;;;;10393931;28;20234;-72
2021/01/23 07:00:51;;;;;;;1.10;1.10;;;5.10;42.90;;;;;;10401857;28;20257;-73
2021/01/23 07:05:56;;;;;;;0.90;0.90;;;5.10;42.70;;;;;;10401865;28;20301;-73
2021/01/23 07:11:06;;;;;;;1.37;0.90;;;5.20;42.60;;;;;;10399714;28;20234;-73
2021/01/23 07:16:12;;;;;;;1.10;1.10;;;5.20;42.90;;;;;;10361621;28;20223;-73
2021/01/23 07:21:16;;;;;;;1.07;1.07;;;5.20;42.90;;;;;;10357849;28;20242;-73
2021/01/23 07:26:18;;;;;;;1.43;1.13;;;5.20;42.70;;;;;;10360632;28;20234;-72
2021/01/23 07:31:23;;;;;;;1.27;1.27;;;5.20;42.40;;;;;;10355930;28;20752;-72
2021/01/23 07:36:34;;;;;;;1.20;1.20;;;5.20;42.90;;;;;;10360948;28;20230;-72
2021/01/23 07:41:39;;;;;;;1.20;1.20;;;5.30;43.00;;;;;;10374029;28;20602;-72
2021/01/23 07:46:43;;;;;;;1.37;1.27;;;5.20;42.40;;;;;;10403367;28;20222;-72
2021/01/23 07:51:46;;;;;;;1.50;1.40;;;5.30;42.60;;;;;;10403794;28;20226;-72
2021/01/23 07:56:54;;;;;;;1.37;1.17;;;5.30;42.60;;;;;;10397484;28;20606;-72
2021/01/23 08:02:02;;;;;;;1.37;1.37;;;5.30;42.90;;;;;;10467227;22;20590;-78
2021/01/23 08:07:23;;;;;;;1.60;1.50;;;5.30;43.20;;;;;;10454438;28;20295;-78
2021/01/23 08:12:25;;;;;;;1.70;1.60;;;5.30;43.20;;;;;;10457260;28;20251;-79
2021/01/23 08:17:45;;;;;;;1.90;1.80;;;5.40;42.50;;;;;;10418378;28;20312;-78
2021/01/23 08:23:10;;;;;;;2.20;2.10;;;5.40;43.10;;;;;;10418664;28;20233;-79
2021/01/23 08:28:14;;;;;;;2.30;2.20;;;5.40;43.10;;;;;;10417327;28;20732;-78
2021/01/23 08:33:16;;;;;;;2.20;2.10;;;5.40;42.20;;;;;;10417162;28;20233;-78
2021/01/23 08:38:19;;;;;;;3.27;3.00;;;5.40;42.30;;;;;;10416371;28;20279;-79
2021/01/23 08:43:21;;;;;;;2.73;2.53;;;5.40;42.40;;;;;;10448966;28;20232;-77
2021/01/23 08:48:23;;;;;;;3.73;3.43;;;5.40;42.40;;;;;;10453716;28;20225;-78
2021/01/23 08:53:27;;;;;;;5.27;4.87;;;5.50;42.30;;;;;;10457429;28;20275;-78
2021/01/23 08:58:29;;;;;;;3.53;3.10;;;5.50;42.50;;;;;;10440191;28;20738;-79
2021/01/23 09:03:31;;;;;;;2.93;2.73;;;5.50;42.20;;;;;;10426609;28;20312;-80
2021/01/23 09:08:34;;;;;;;3.20;2.90;;;5.50;42.40;;;;;;10423384;28;20221;-78
2021/01/23 09:13:37;;;;;;;4.47;3.90;;;5.50;42.50;;;;;;10413809;28;20229;-78
2021/01/23 09:18:39;;;;;;;2.90;2.70;;;5.50;42.50;;;;;;10414381;28;20245;-79
2021/01/23 09:23:42;;;;;;;2.60;2.50;;;5.60;42.60;;;;;;10409870;28;20229;-78
2021/01/23 09:28:44;;;;;;;2.50;2.40;;;5.60;42.60;;;;;;10406361;28;20317;-79
2021/01/23 09:33:48;;;;;;;2.63;2.43;;;5.60;42.40;;;;;;10412418;28;20245;-78
2021/01/23 09:38:51;;;;;;;2.80;2.60;;;5.60;42.40;;;;;;10426680;28;20311;-79
2021/01/23 09:43:54;;;;;;;3.07;2.87;;;5.60;42.60;;;;;;10501468;28;20224;-77
2021/01/23 09:48:57;;;;;;;3.70;3.40;;;5.70;42.40;;;;;;10499105;28;20307;-77
2021/01/23 09:54:00;;;;;;;4.00;3.70;;;5.70;42.40;;;;;;10496667;28;20259;-77
2021/01/23 09:59:02;;;;;;;3.73;3.43;;;5.80;42.60;;;;;;10486160;28;20220;-77
2021/01/23 10:04:05;;;;;;;3.47;3.17;;;5.80;42.50;;;;;;10494965;28;20232;-77
2021/01/23 10:09:08;;;;;;;3.30;3.10;;;5.90;42.50;;;;;;10492086;28;20653;-76
2021/01/23 10:14:10;;;;;;;3.13;2.93;;;5.90;42.60;;;;;;10495907;28;20224;-77
2021/01/23 10:19:12;;;;;;;3.27;3.07;;;6.00;42.40;;;;;;10483527;28;20225;-78
2021/01/23 10:24:16;;;;;;;2.53;2.33;;;6.00;42.30;;;;;;10452878;28;20233;-78
2021/01/23 10:29:18;;;;;;;2.53;2.37;;;6.10;42.70;;;;;;10455970;28;20233;-77
2021/01/23 10:34:21;;;;;;;3.23;3.00;;;6.10;42.50;;;;;;10433903;28;21253;-78
2021/01/23 10:39:24;;;;;;;3.20;3.00;;;6.20;42.60;;;;;;10443039;28;20235;-77
2021/01/23 10:44:27;;;;;;;3.13;2.93;;;6.20;43.00;;;;;;10442316;28;20660;-83
2021/01/23 10:49:29;;;;;;;2.80;2.60;;;6.30;42.90;;;;;;10428469;28;20524;-79
2021/01/23 10:54:32;;;;;;;3.27;2.97;;;6.40;42.90;;;;;;10430652;28;20260;-80
2021/01/23 10:59:35;;;;;;;3.20;3.00;;;6.50;43.30;;;;;;10430959;28;20251;-76
2021/01/23 11:04:37;;;;;;;4.20;3.77;;;6.60;43.20;;;;;;10448292;28;20227;-77
2021/01/23 11:09:41;;;;;;;4.53;4.07;;;6.70;42.60;;;;;;10448430;28;20232;-78
2021/01/23 11:14:48;;;;;;;4.23;3.10;;;6.80;43.00;;;;;;10443107;28;20244;-76
2021/01/23 11:19:51;;;;;;;2.90;2.70;;;6.90;42.60;;;;;;10453466;28;20320;-76
2021/01/23 11:24:54;;;;;;;2.43;2.20;;;6.90;42.50;;;;;;10453649;28;20655;-75
2021/01/23 11:29:56;;;;;;;3.27;3.03;;;7.00;42.50;;;;;;10452731;28;20248;-76
2021/01/23 11:34:58;;;;;;;2.40;2.20;;;7.10;42.50;;;;;;10452862;28;20272;-75
2021/01/23 11:40:02;;;;;;;2.40;2.20;;;7.20;42.50;;;;;;10453529;28;20235;-76
2021/01/23 11:45:08;;;;;;;2.47;2.27;;;7.30;42.60;;;;;;10478817;28;20281;-78
2021/01/23 11:50:11;;;;;;;2.63;2.43;;;7.30;42.70;;;;;;10451428;28;20258;-77
2021/01/23 11:55:14;;;;;;;2.63;2.47;;;7.40;42.50;;;;;;10410609;28;20596;-77
2021/01/23 12:00:19;;;;;;;2.70;2.50;;;7.40;42.30;;;;;;10411126;28;20271;-77
2021/01/23 12:05:21;;;;;;;2.33;2.23;;;7.50;42.20;;;;;;10443105;28;20327;-77
2021/01/23 12:10:24;;;;;;;2.50;2.30;;;7.50;42.20;;;;;;10451877;28;20308;-77
2021/01/23 12:15:27;;;;;;;2.50;2.30;;;7.50;42.40;;;;;;10432137;28;20236;-77
2021/01/23 12:20:30;;;;;;;2.77;2.57;;;7.60;42.20;;;;;;10463377;28;20235;-77
2021/01/23 12:25:33;;;;;;;2.57;2.43;;;7.60;41.90;;;;;;10446610;28;20650;-83
2021/01/23 12:30:36;;;;;;;3.27;3.07;;;7.60;42.10;;;;;;10437023;28;20720;-80
2021/01/23 12:35:38;;;;;;;3.80;3.50;;;7.60;42.10;;;;;;10454814;28;20260;-79
2021/01/23 12:40:41;;;;;;;3.33;2.57;;;7.60;42.00;;;;;;10435191;28;20229;-80
2021/01/23 12:45:43;;;;;;;2.97;2.70;;;7.70;41.90;;;;;;10485565;28;20232;-80
2021/01/23 12:50:46;;;;;;;3.27;3.07;;;7.70;42.00;;;;;;10456506;28;20260;-80
2021/01/23 12:55:50;;;;;;;3.07;2.87;;;7.70;41.80;;;;;;10478041;28;20228;-80
2021/01/23 13:00:52;;;;;;;2.97;2.77;;;7.70;41.70;;;;;;10476695;28;20229;-79
2021/01/23 13:05:55;;;;;;;5.20;4.70;;;7.70;41.80;;;;;;10459129;28;20252;-80
2021/01/23 13:10:58;;;;;;;3.27;3.07;;;7.80;41.70;;;;;;10457160;28;20245;-81
2021/01/23 13:16:01;;;;;;;3.03;2.83;;;7.80;41.60;;;;;;10455801;28;20281;-78
2021/01/23 13:21:05;;;;;;;3.10;2.90;;;7.80;41.70;;;;;;10453407;28;20225;-78
2021/01/23 13:26:09;;;;;;;2.50;2.30;;;7.80;41.60;;;;;;10451635;28;20232;-78
2021/01/23 13:31:11;;;;;;;2.83;2.63;;;7.80;41.90;;;;;;10430355;28;20229;-77
2021/01/23 13:36:14;;;;;;;2.40;2.30;;;7.90;41.70;;;;;;10408546;28;20229;-78
2021/01/23 13:41:17;;;;;;;3.70;2.70;;;7.90;41.70;;;;;;10408826;28;20240;-78
2021/01/23 13:46:20;;;;;;;3.10;2.90;;;7.90;41.60;;;;;;10408691;28;20228;-77
2021/01/23 13:51:23;;;;;;;3.30;3.10;;;7.80;41.30;;;;;;10409104;28;20236;-78
2021/01/23 13:56:26;;;;;;;3.60;3.30;;;7.90;41.40;;;;;;10414302;28;20296;-78
2021/01/23 14:01:28;;;;;;;3.67;3.37;;;7.80;41.30;;;;;;10454055;28;20712;-78
2021/01/23 14:06:34;;;;;;;3.57;3.33;;;7.80;41.40;;;;;;10461259;28;20235;-79
2021/01/23 14:11:45;;;;;;;54.50;44.13;;;7.80;41.60;;;;;;10459876;28;20239;-78
2021/01/23 14:16:47;;;;;;;17.60;15.80;;;7.80;43.70;;;;;;10487274;23;20267;-75
2021/01/23 14:21:49;;;;;;;7.00;6.37;;;8.00;44.30;;;;;;10470579;28;20224;-71
2021/01/23 14:26:52;;;;;;;6.00;5.50;;;8.20;43.20;;;;;;10477701;28;20231;-72
2021/01/23 14:31:55;;;;;;;4.97;4.57;;;8.30;42.40;;;;;;10476422;28;20225;-71
2021/01/23 14:36:57;;;;;;;4.50;4.10;;;8.40;42.00;;;;;;10485692;28;20315;-69
2021/01/23 14:42:00;;;;;;;4.50;4.20;;;8.30;41.50;;;;;;10485591;28;20228;-69
2021/01/23 14:47:03;;;;;;;5.00;4.60;;;8.30;41.40;;;;;;10479398;28;20307;-69
2021/01/23 14:52:06;;;;;;;4.93;4.53;;;8.30;41.40;;;;;;10476133;28;20238;-69
2021/01/23 14:57:09;;;;;;;4.73;4.33;;;8.20;41.50;;;;;;10480886;28;20240;-69
2021/01/23 15:02:11;;;;;;;5.07;4.67;;;8.20;41.50;;;;;;10476390;28;20732;-69
2021/01/23 15:07:14;;;;;;;5.93;5.33;;;8.20;41.40;;;;;;10473607;28;20235;-71
2021/01/23 15:12:17;;;;;;;5.53;4.50;;;8.20;41.40;;;;;;10482845;28;20220;-71
2021/01/23 15:17:20;;;;;;;21.73;19.50;;;8.20;41.40;;;;;;10483503;28;20216;-71
2021/01/23 15:22:22;;;;;;;9.10;8.27;;;8.20;41.40;;;;;;10478013;28;20307;-69
2021/01/23 15:27:25;;;;;;;9.47;8.57;;;8.20;41.40;;;;;;10474886;28;20899;-69
2021/01/23 15:32:27;;;;;;;13.90;12.30;;;8.20;41.20;;;;;;10480891;28;20307;-69
2021/01/23 15:37:30;;;;;;;14.30;12.90;;;8.10;41.20;;;;;;10479276;28;20594;-69
2021/01/23 15:42:33;;;;;;;8.87;8.07;;;8.10;41.30;;;;;;10472312;28;20231;-69
2021/01/23 15:47:35;;;;;;;6.57;5.97;;;8.10;41.30;;;;;;10469211;28;20225;-69
2021/01/23 15:52:39;;;;;;;8.43;7.73;;;8.00;41.20;;;;;;10479367;28;20227;-69
2021/01/23 15:57:42;;;;;;;7.67;7.07;;;7.90;41.10;;;;;;10471754;28;20227;-69
2021/01/23 16:02:44;;;;;;;7.33;6.73;;;7.90;41.30;;;;;;10481906;27;20238;-69
2021/01/23 16:07:46;;;;;;;6.70;6.10;;;7.90;41.30;;;;;;10470248;28;20247;-69
2021/01/23 16:12:50;;;;;;;6.87;6.27;;;7.90;42.30;;;;;;10476422;28;20227;-69
2021/01/23 16:17:58;;;;;;;8.80;7.97;;;8.00;42.00;;;;;;10467103;28;20251;-69
2021/01/23 16:23:01;;;;;;;7.47;6.70;;;8.00;41.40;;;;;;10479954;28;20282;-69
2021/01/23 16:28:06;;;;;;;9.50;8.57;;;8.00;41.30;;;;;;10479011;28;20224;-71
2021/01/23 16:33:09;;;;;;;20.60;18.47;;;7.90;41.20;;;;;;10477030;28;20304;-69
2021/01/23 16:38:14;;;;;;;18.77;16.90;;;7.90;41.00;;;;;;10467016;28;20229;-72
2021/01/23 16:43:18;;;;;;;17.77;16.20;;;7.80;40.90;;;;;;10474786;28;20252;-69
2021/01/23 16:48:20;;;;;;;13.20;11.90;;;7.80;41.00;;;;;;10470384;28;20252;-69
2021/01/23 16:53:23;;;;;;;11.63;10.43;;;7.70;40.90;;;;;;10470743;28;20655;-72
2021/01/23 16:58:26;;;;;;;8.30;7.50;;;7.60;40.80;;;;;;10447274;28;20254;-72
2021/01/23 17:03:28;;;;;;;8.60;7.90;;;7.50;40.90;;;;;;10472850;28;20232;-72
2021/01/23 17:08:30;;;;;;;8.97;8.07;;;7.40;40.80;;;;;;10485968;22;20224;-67
2021/01/23 17:13:34;;;;;;;7.87;7.17;;;7.40;40.90;;;;;;10471220;28;20224;-69
2021/01/23 17:18:36;;;;;;;7.93;7.23;;;7.40;40.90;;;;;;10467410;28;20231;-66
2021/01/23 17:23:38;;;;;;;8.17;7.37;;;7.30;40.60;;;;;;10471968;28;20238;-67
2021/01/23 17:28:41;;;;;;;7.47;6.87;;;7.30;40.60;;;;;;10467198;28;20234;-67
2021/01/23 17:33:44;;;;;;;9.13;8.33;;;7.20;40.80;;;;;;10475583;28;20220;-67
2021/01/23 17:38:46;;;;;;;8.57;7.77;;;7.20;40.90;;;;;;10478872;28;20221;-67
2021/01/23 17:43:49;;;;;;;9.50;8.70;;;7.10;40.70;;;;;;10471705;28;20229;-67
2021/01/23 17:48:55;;;;;;;8.87;8.07;;;7.10;40.60;;;;;;10474947;28;20226;-69
2021/01/23 17:53:57;;;;;;;9.43;8.63;;;7.10;40.80;;;;;;10489071;28;20230;-67
2021/01/23 17:59:01;;;;;;;10.57;9.57;;;7.00;40.60;;;;;;10485224;28;20318;-70
2021/01/23 18:04:03;;;;;;;11.13;10.03;;;7.00;40.80;;;;;;10491102;28;20224;-71
2021/01/23 18:09:06;;;;;;;10.20;9.30;;;6.90;40.60;;;;;;10483024;28;20594;-70
2021/01/23 18:14:10;;;;;;;10.20;9.20;;;6.90;40.70;;;;;;10484127;28;20300;-69
2021/01/23 18:19:12;;;;;;;12.00;10.60;;;6.80;40.80;;;;;;10467101;28;20311;-68
2021/01/23 18:24:14;;;;;;;10.40;9.40;;;6.80;40.60;;;;;;10486241;28;20269;-68
2021/01/23 18:29:17;;;;;;;12.97;11.60;;;6.80;40.60;;;;;;10479198;28;20232;-67
2021/01/23 18:34:19;;;;;;;13.10;11.83;;;6.70;40.80;;;;;;10474965;28;20229;-67
2021/01/23 18:39:22;;;;;;;12.40;11.30;;;6.60;40.80;;;;;;10484390;28;20583;-67
2021/01/23 18:44:25;;;;;;;10.03;9.13;;;6.60;40.70;;;;;;10479435;28;20979;-69
2021/01/23 18:49:27;;;;;;;10.33;9.13;;;6.60;40.90;;;;;;10480506;28;20221;-70
2021/01/23 18:54:30;;;;;;;11.30;10.00;;;6.50;40.80;;;;;;10486918;28;20234;-70
2021/01/23 18:59:33;;;;;;;10.90;9.80;;;6.40;40.60;;;;;;10485388;28;20234;-70
2021/01/23 19:04:35;;;;;;;13.87;12.37;;;6.30;41.60;;;;;;10486617;28;20228;-70
2021/01/23 19:09:38;;;;;;;11.70;10.60;;;6.20;40.90;;;;;;10478433;28;20308;-70
2021/01/23 19:14:42;;;;;;;13.90;11.80;;;6.20;41.00;;;;;;10477293;28;20221;-70
2021/01/23 19:19:44;;;;;;;8.83;7.70;;;6.20;41.20;;;;;;10490498;28;20216;-70
2021/01/23 19:24:46;;;;;;;7.83;7.13;;;6.10;41.10;;;;;;10470766;28;20229;-70
2021/01/23 19:29:49;;;;;;;7.47;6.77;;;6.10;41.10;;;;;;10480197;28;20221;-71
2021/01/23 19:34:51;;;;;;;7.43;6.80;;;6.00;41.20;;;;;;10479839;28;20275;-71
2021/01/23 19:39:54;;;;;;;8.20;7.40;;;6.00;41.20;;;;;;10482386;28;20273;-70
2021/01/23 19:44:58;;;;;;;8.20;7.40;;;5.90;41.30;;;;;;10478001;28;20230;-70
2021/01/23 19:50:00;;;;;;;9.87;8.97;;;5.90;41.60;;;;;;10482528;28;20231;-70
2021/01/23 19:55:04;;;;;;;8.97;8.17;;;5.90;41.40;;;;;;10481452;28;20228;-70
2021/01/23 20:00:09;;;;;;;8.67;7.87;;;6.00;41.40;;;;;;10479936;28;20232;-70
2021/01/23 20:05:12;;;;;;;7.83;7.13;;;5.90;41.50;;;;;;10468917;28;20700;-70
2021/01/23 20:10:14;;;;;;;7.37;6.77;;;5.90;41.50;;;;;;10476827;28;20226;-70
2021/01/23 20:15:19;;;;;;;10.53;9.47;;;6.00;41.50;;;;;;10484611;28;20234;-70
2021/01/23 20:20:22;;;;;;;11.97;10.67;;;6.00;41.50;;;;;;10480239;28;20318;-71
2021/01/23 20:25:24;;;;;;;10.30;9.07;;;6.00;41.30;;;;;;10471908;28;20714;-71
2021/01/23 20:30:27;;;;;;;9.80;8.90;;;6.10;41.90;;;;;;10477591;28;20228;-71
2021/01/23 20:35:29;;;;;;;7.93;7.17;;;6.10;41.20;;;;;;10472753;28;20248;-71
2021/01/23 20:40:32;;;;;;;10.27;9.27;;;6.00;40.90;;;;;;10474625;28;20602;-71
2021/01/23 20:45:35;;;;;;;8.17;7.47;;;6.00;40.50;;;;;;10477379;28;20235;-71
2021/01/23 20:50:38;;;;;;;8.10;7.30;;;5.90;40.80;;;;;;10478568;28;20615;-69
2021/01/23 20:55:40;;;;;;;8.17;7.37;;;5.80;40.80;;;;;;10481426;28;20220;-72
2021/01/23 21:00:44;;;;;;;7.87;7.10;;;5.80;40.90;;;;;;10483008;28;20311;-72
2021/01/23 21:05:46;;;;;;;6.53;5.93;;;5.70;41.20;;;;;;10484809;28;20591;-72
2021/01/23 21:10:48;;;;;;;7.27;6.67;;;5.80;41.20;;;;;;10472715;28;20222;-72
2021/01/23 21:15:51;;;;;;;6.70;6.10;;;5.80;41.10;;;;;;10486333;28;20449;-74
2021/01/23 21:20:54;;;;;;;8.83;8.00;;;5.80;41.10;;;;;;10477659;28;20246;-74
2021/01/23 21:25:56;;;;;;;10.03;8.53;;;5.70;41.20;;;;;;10480116;28;20224;-74
2021/01/23 21:30:59;;;;;;;8.87;8.10;;;5.70;41.10;;;;;;10482556;28;20696;-74
2021/01/23 21:36:01;;;;;;;7.93;7.20;;;5.70;41.20;;;;;;10487286;28;20667;-73
2021/01/23 21:41:04;;;;;;;7.10;6.40;;;5.70;41.20;;;;;;10490141;28;20332;-74
2021/01/23 21:46:07;;;;;;;7.97;7.20;;;5.70;41.20;;;;;;10484854;28;20311;-73
2021/01/23 21:51:09;;;;;;;7.17;6.10;;;5.70;41.30;;;;;;10487877;28;20216;-74
2021/01/23 21:56:11;;;;;;;7.20;6.50;;;5.70;41.30;;;;;;10485242;28;20236;-74
2021/01/23 22:01:14;;;;;;;6.87;6.17;;;5.80;41.40;;;;;;10475503;28;20463;-74
2021/01/23 22:06:17;;;;;;;6.20;5.60;;;5.70;41.40;;;;;;10473759;28;20576;-74
2021/01/23 22:11:19;;;;;;;6.03;5.43;;;5.80;41.50;;;;;;10475665;28;20304;-74
2021/01/23 22:16:22;;;;;;;6.53;5.93;;;5.80;41.50;;;;;;10500314;28;20672;-74
2021/01/23 22:21:24;;;;;;;6.80;6.20;;;5.80;41.40;;;;;;10480334;28;20411;-74
2021/01/23 22:26:26;;;;;;;6.23;5.73;;;5.80;41.40;;;;;;10481506;28;20247;-74
2021/01/23 22:31:30;;;;;;;7.93;7.13;;;5.80;41.30;;;;;;10480570;28;20220;-74
2021/01/23 22:36:32;;;;;;;6.53;5.90;;;5.80;41.50;;;;;;10479410;28;20579;-74
2021/01/23 22:41:34;;;;;;;6.30;5.70;;;5.80;41.60;;;;;;10489227;28;20228;-74
2021/01/23 22:46:37;;;;;;;5.63;5.13;;;5.80;41.50;;;;;;10484478;28;20225;-74
2021/01/23 22:51:40;;;;;;;7.50;6.00;;;5.80;41.60;;;;;;10483653;28;20219;-74
2021/01/23 22:56:42;;;;;;;5.93;5.43;;;5.80;41.50;;;;;;10489722;28;20234;-74
2021/01/23 23:01:45;;;;;;;5.63;5.13;;;5.80;41.40;;;;;;10481164;28;20730;-74
2021/01/23 23:06:48;;;;;;;7.90;7.10;;;5.80;41.30;;;;;;10482349;28;20727;-74
2021/01/23 23:11:50;;;;;;;6.00;5.50;;;5.80;41.10;;;;;;10461867;28;21003;-74
2021/01/23 23:16:53;;;;;;;6.97;6.37;;;5.80;41.20;;;;;;10481799;28;20720;-74
2021/01/23 23:21:55;;;;;;;5.67;5.10;;;5.80;41.30;;;;;;10470877;28;20315;-74
2021/01/23 23:26:57;;;;;;;7.33;6.73;;;5.80;41.40;;;;;;10490011;28;20235;-74
2021/01/23 23:32:00;;;;;;;6.80;6.20;;;5.80;41.30;;;;;;10481893;28;20230;-74
2021/01/23 23:37:03;;;;;;;6.17;5.60;;;5.80;41.50;;;;;;10477574;28;20229;-73
2021/01/23 23:42:05;;;;;;;6.10;5.50;;;5.70;41.30;;;;;;10486581;28;20244;-73
2021/01/23 23:47:08;;;;;;;6.70;6.10;;;5.70;41.30;;;;;;10482509;28;20232;-73
2021/01/23 23:52:10;;;;;;;6.00;5.43;;;5.70;41.40;;;;;;10467715;28;20225;-73
2021/01/23 23:57:13;;;;;;;6.33;5.77;;;5.80;41.50;;;;;;10478397;28;20232;-73
